sensor_id;sensor_type;location;lat;lon;timestamp;temperature;humidity
60473;DHT22;46318;52.716;6.444;2023-03-17T00:01:49;7.50;98.00
60473;DHT22;46318;52.716;6.444;2023-03-17T00:04:18;7.50;98.10
60473;DHT22;46318;52.716;6.444;2023-03-17T00:06:45;7.50;98.10
60473;DHT22;46318;52.716;6.444;2023-03-17T00:09:12;7.50;98.20
60473;DHT22;46318;52.716;6.444;2023-03-17T00:11:40;7.50;98.20
60473;DHT22;46318;52.716;6.444;2023-03-17T00:14:07;7.50;98.30
60473;DHT22;46318;52.716;6.444;2023-03-17T00:16:36;7.50;98.30
60473;DHT22;46318;52.716;6.444;2023-03-17T00:19:04;7.40;98.30
60473;DHT22;46318;52.716;6.444;2023-03-17T00:21:33;7.40;98.70
60473;DHT22;46318;52.716;6.444;2023-03-17T00:24:00;7.40;98.30
60473;DHT22;46318;52.716;6.444;2023-03-17T00:26:26;7.40;98.30
60473;DHT22;46318;52.716;6.444;2023-03-17T00:28:53;7.40;98.30
60473;DHT22;46318;52.716;6.444;2023-03-17T00:31:29;7.40;98.30
60473;DHT22;46318;52.716;6.444;2023-03-17T00:33:56;7.40;98.30
60473;DHT22;46318;52.716;6.444;2023-03-17T00:36:27;7.40;98.30
60473;DHT22;46318;52.716;6.444;2023-03-17T00:38:55;7.40;98.30
60473;DHT22;46318;52.716;6.444;2023-03-17T00:41:22;7.40;98.30
60473;DHT22;46318;52.716;6.444;2023-03-17T00:43:48;7.40;98.40
60473;DHT22;46318;52.716;6.444;2023-03-17T00:46:16;7.40;98.40
60473;DHT22;46318;52.716;6.444;2023-03-17T00:48:44;7.40;98.40
60473;DHT22;46318;52.716;6.444;2023-03-17T00:51:11;7.40;98.40
60473;DHT22;46318;52.716;6.444;2023-03-17T00:53:38;7.40;98.40
60473;DHT22;46318;52.716;6.444;2023-03-17T00:56:13;7.40;98.40
60473;DHT22;46318;52.716;6.444;2023-03-17T00:58:40;7.40;98.30
60473;DHT22;46318;52.716;6.444;2023-03-17T01:01:07;7.40;98.30
60473;DHT22;46318;52.716;6.444;2023-03-17T01:03:33;7.40;98.20
60473;DHT22;46318;52.716;6.444;2023-03-17T01:06:00;7.40;98.30
60473;DHT22;46318;52.716;6.444;2023-03-17T01:08:28;7.30;98.20
60473;DHT22;46318;52.716;6.444;2023-03-17T01:10:55;7.30;98.30
60473;DHT22;46318;52.716;6.444;2023-03-17T01:13:22;7.30;98.30
60473;DHT22;46318;52.716;6.444;2023-03-17T01:15:49;7.30;98.30
60473;DHT22;46318;52.716;6.444;2023-03-17T01:18:17;7.40;98.30
60473;DHT22;46318;52.716;6.444;2023-03-17T01:20:46;7.30;98.30
60473;DHT22;46318;52.716;6.444;2023-03-17T01:23:12;7.30;98.30
60473;DHT22;46318;52.716;6.444;2023-03-17T01:25:41;7.30;98.30
60473;DHT22;46318;52.716;6.444;2023-03-17T01:28:15;7.30;98.40
60473;DHT22;46318;52.716;6.444;2023-03-17T01:30:42;7.30;98.40
60473;DHT22;46318;52.716;6.444;2023-03-17T01:33:10;7.30;98.50
60473;DHT22;46318;52.716;6.444;2023-03-17T01:35:38;7.30;98.50
60473;DHT22;46318;52.716;6.444;2023-03-17T01:38:05;7.30;98.50
60473;DHT22;46318;52.716;6.444;2023-03-17T01:40:37;7.30;98.60
60473;DHT22;46318;52.716;6.444;2023-03-17T01:49:06;7.20;98.60
60473;DHT22;46318;52.716;6.444;2023-03-17T01:52:14;7.20;98.60
60473;DHT22;46318;52.716;6.444;2023-03-17T01:54:53;7.20;98.60
60473;DHT22;46318;52.716;6.444;2023-03-17T01:57:25;7.20;98.60
60473;DHT22;46318;52.716;6.444;2023-03-17T02:00:04;7.20;98.50
60473;DHT22;46318;52.716;6.444;2023-03-17T02:02:39;7.20;98.60
60473;DHT22;46318;52.716;6.444;2023-03-17T02:05:10;7.20;98.60
60473;DHT22;46318;52.716;6.444;2023-03-17T02:07:39;7.20;98.70
60473;DHT22;46318;52.716;6.444;2023-03-17T02:10:07;7.20;98.70
60473;DHT22;46318;52.716;6.444;2023-03-17T02:12:35;7.20;98.80
60473;DHT22;46318;52.716;6.444;2023-03-17T02:15:01;7.10;98.70
60473;DHT22;46318;52.716;6.444;2023-03-17T02:17:28;7.20;98.80
60473;DHT22;46318;52.716;6.444;2023-03-17T02:19:54;7.10;98.70
60473;DHT22;46318;52.716;6.444;2023-03-17T02:22:20;7.20;98.80
60473;DHT22;46318;52.716;6.444;2023-03-17T02:24:56;7.20;98.70
60473;DHT22;46318;52.716;6.444;2023-03-17T02:27:58;7.10;98.80
60473;DHT22;46318;52.716;6.444;2023-03-17T02:30:19;7.10;98.90
60473;DHT22;46318;52.716;6.444;2023-03-17T02:32:45;7.10;98.90
60473;DHT22;46318;52.716;6.444;2023-03-17T02:35:12;7.10;98.90
60473;DHT22;46318;52.716;6.444;2023-03-17T02:37:39;7.10;98.90
60473;DHT22;46318;52.716;6.444;2023-03-17T02:40:06;7.10;98.90
60473;DHT22;46318;52.716;6.444;2023-03-17T02:42:34;7.10;98.90
60473;DHT22;46318;52.716;6.444;2023-03-17T02:45:00;7.10;98.90
60473;DHT22;46318;52.716;6.444;2023-03-17T02:47:27;7.10;98.90
60473;DHT22;46318;52.716;6.444;2023-03-17T02:49:53;7.00;98.80
60473;DHT22;46318;52.716;6.444;2023-03-17T02:52:19;7.00;98.90
60473;DHT22;46318;52.716;6.444;2023-03-17T02:54:45;7.10;98.90
60473;DHT22;46318;52.716;6.444;2023-03-17T02:57:11;7.00;99.00
60473;DHT22;46318;52.716;6.444;2023-03-17T02:59:37;7.00;98.90
60473;DHT22;46318;52.716;6.444;2023-03-17T03:02:02;7.00;98.90
60473;DHT22;46318;52.716;6.444;2023-03-17T03:04:28;7.00;98.90
60473;DHT22;46318;52.716;6.444;2023-03-17T03:06:55;7.00;99.00
60473;DHT22;46318;52.716;6.444;2023-03-17T03:09:22;7.00;99.00
60473;DHT22;46318;52.716;6.444;2023-03-17T03:11:48;7.00;99.00
60473;DHT22;46318;52.716;6.444;2023-03-17T03:14:14;7.00;99.00
60473;DHT22;46318;52.716;6.444;2023-03-17T03:16:40;7.00;99.00
60473;DHT22;46318;52.716;6.444;2023-03-17T03:19:07;7.00;99.00
60473;DHT22;46318;52.716;6.444;2023-03-17T03:21:33;7.00;99.00
60473;DHT22;46318;52.716;6.444;2023-03-17T03:23:59;7.00;99.10
60473;DHT22;46318;52.716;6.444;2023-03-17T03:26:25;7.00;99.10
60473;DHT22;46318;52.716;6.444;2023-03-17T03:28:51;7.00;99.10
60473;DHT22;46318;52.716;6.444;2023-03-17T03:31:18;7.00;99.20
60473;DHT22;46318;52.716;6.444;2023-03-17T03:33:44;6.90;99.20
60473;DHT22;46318;52.716;6.444;2023-03-17T03:36:10;6.90;99.20
60473;DHT22;46318;52.716;6.444;2023-03-17T03:38:37;7.00;99.30
60473;DHT22;46318;52.716;6.444;2023-03-17T03:41:03;7.00;99.30
60473;DHT22;46318;52.716;6.444;2023-03-17T03:43:30;6.90;99.30
60473;DHT22;46318;52.716;6.444;2023-03-17T03:45:56;6.90;99.30
60473;DHT22;46318;52.716;6.444;2023-03-17T03:48:22;6.90;99.30
60473;DHT22;46318;52.716;6.444;2023-03-17T03:50:48;6.90;99.30
60473;DHT22;46318;52.716;6.444;2023-03-17T03:53:14;6.90;99.30
60473;DHT22;46318;52.716;6.444;2023-03-17T03:55:40;6.90;99.30
60473;DHT22;46318;52.716;6.444;2023-03-17T03:58:06;6.90;99.40
60473;DHT22;46318;52.716;6.444;2023-03-17T04:00:33;6.90;99.40
60473;DHT22;46318;52.716;6.444;2023-03-17T04:02:59;6.90;99.50
60473;DHT22;46318;52.716;6.444;2023-03-17T04:05:25;6.80;99.50
60473;DHT22;46318;52.716;6.444;2023-03-17T04:07:51;6.80;99.50
60473;DHT22;46318;52.716;6.444;2023-03-17T04:10:18;6.80;99.60
60473;DHT22;46318;52.716;6.444;2023-03-17T04:12:44;6.80;99.60
60473;DHT22;46318;52.716;6.444;2023-03-17T04:15:14;6.80;99.60
60473;DHT22;46318;52.716;6.444;2023-03-17T04:17:41;6.80;99.70
60473;DHT22;46318;52.716;6.444;2023-03-17T04:20:09;6.80;99.70
60473;DHT22;46318;52.716;6.444;2023-03-17T04:22:36;6.70;99.70
60473;DHT22;46318;52.716;6.444;2023-03-17T04:25:02;6.80;99.70
60473;DHT22;46318;52.716;6.444;2023-03-17T04:27:27;6.70;99.70
60473;DHT22;46318;52.716;6.444;2023-03-17T04:29:53;6.70;99.80
60473;DHT22;46318;52.716;6.444;2023-03-17T04:32:19;6.70;99.80
60473;DHT22;46318;52.716;6.444;2023-03-17T04:34:45;6.80;99.90
60473;DHT22;46318;52.716;6.444;2023-03-17T04:37:11;6.70;99.90
60473;DHT22;46318;52.716;6.444;2023-03-17T04:39:37;6.70;99.90
60473;DHT22;46318;52.716;6.444;2023-03-17T04:42:04;6.70;99.90
60473;DHT22;46318;52.716;6.444;2023-03-17T04:44:32;6.70;99.90
60473;DHT22;46318;52.716;6.444;2023-03-17T04:46:58;6.70;99.90
60473;DHT22;46318;52.716;6.444;2023-03-17T04:49:24;6.70;99.90
60473;DHT22;46318;52.716;6.444;2023-03-17T04:51:50;6.70;99.90
60473;DHT22;46318;52.716;6.444;2023-03-17T04:54:16;6.70;99.90
60473;DHT22;46318;52.716;6.444;2023-03-17T04:56:42;6.70;99.90
60473;DHT22;46318;52.716;6.444;2023-03-17T04:59:08;6.70;99.90
60473;DHT22;46318;52.716;6.444;2023-03-17T05:01:34;6.70;99.90
60473;DHT22;46318;52.716;6.444;2023-03-17T05:04:01;6.70;99.90
60473;DHT22;46318;52.716;6.444;2023-03-17T05:06:27;6.70;99.90
60473;DHT22;46318;52.716;6.444;2023-03-17T05:08:52;6.70;99.90
60473;DHT22;46318;52.716;6.444;2023-03-17T05:11:18;6.70;99.90
60473;DHT22;46318;52.716;6.444;2023-03-17T05:13:44;6.70;99.90
60473;DHT22;46318;52.716;6.444;2023-03-17T05:16:10;6.70;99.90
60473;DHT22;46318;52.716;6.444;2023-03-17T05:18:37;6.70;99.90
60473;DHT22;46318;52.716;6.444;2023-03-17T05:21:04;6.70;99.90
60473;DHT22;46318;52.716;6.444;2023-03-17T05:23:31;6.70;99.90
60473;DHT22;46318;52.716;6.444;2023-03-17T05:25:57;6.70;99.90
60473;DHT22;46318;52.716;6.444;2023-03-17T05:28:22;6.70;99.90
60473;DHT22;46318;52.716;6.444;2023-03-17T05:30:49;6.70;99.90
60473;DHT22;46318;52.716;6.444;2023-03-17T05:33:15;6.70;99.90
60473;DHT22;46318;52.716;6.444;2023-03-17T05:35:42;6.80;99.90
60473;DHT22;46318;52.716;6.444;2023-03-17T05:38:10;6.80;99.90
60473;DHT22;46318;52.716;6.444;2023-03-17T05:40:37;6.80;99.90
60473;DHT22;46318;52.716;6.444;2023-03-17T05:43:04;6.80;99.90
60473;DHT22;46318;52.716;6.444;2023-03-17T05:45:31;6.80;99.90
60473;DHT22;46318;52.716;6.444;2023-03-17T05:47:58;6.90;99.90
60473;DHT22;46318;52.716;6.444;2023-03-17T05:50:24;6.90;99.90
60473;DHT22;46318;52.716;6.444;2023-03-17T05:52:51;6.90;99.90
60473;DHT22;46318;52.716;6.444;2023-03-17T05:55:18;6.90;99.90
60473;DHT22;46318;52.716;6.444;2023-03-17T05:57:44;6.90;99.90
60473;DHT22;46318;52.716;6.444;2023-03-17T06:00:13;6.90;99.90
60473;DHT22;46318;52.716;6.444;2023-03-17T06:02:41;6.90;99.90
60473;DHT22;46318;52.716;6.444;2023-03-17T06:05:07;6.90;99.90
60473;DHT22;46318;52.716;6.444;2023-03-17T06:07:34;6.90;99.90
60473;DHT22;46318;52.716;6.444;2023-03-17T06:10:07;6.90;99.90
60473;DHT22;46318;52.716;6.444;2023-03-17T06:12:33;6.90;99.90
60473;DHT22;46318;52.716;6.444;2023-03-17T06:14:59;6.90;99.90
60473;DHT22;46318;52.716;6.444;2023-03-17T06:17:25;6.90;99.90
60473;DHT22;46318;52.716;6.444;2023-03-17T06:19:51;6.90;99.90
60473;DHT22;46318;52.716;6.444;2023-03-17T06:22:16;6.90;99.90
60473;DHT22;46318;52.716;6.444;2023-03-17T06:24:42;7.00;99.90
60473;DHT22;46318;52.716;6.444;2023-03-17T06:27:08;7.00;99.90
60473;DHT22;46318;52.716;6.444;2023-03-17T06:29:36;7.00;99.90
60473;DHT22;46318;52.716;6.444;2023-03-17T06:32:03;7.00;99.90
60473;DHT22;46318;52.716;6.444;2023-03-17T06:34:29;7.00;99.90
60473;DHT22;46318;52.716;6.444;2023-03-17T06:36:55;7.00;99.90
60473;DHT22;46318;52.716;6.444;2023-03-17T06:39:21;7.10;99.90
60473;DHT22;46318;52.716;6.444;2023-03-17T06:41:47;7.10;99.90
60473;DHT22;46318;52.716;6.444;2023-03-17T06:44:13;7.10;99.90
60473;DHT22;46318;52.716;6.444;2023-03-17T06:46:39;7.10;99.90
60473;DHT22;46318;52.716;6.444;2023-03-17T06:49:06;7.20;99.90
60473;DHT22;46318;52.716;6.444;2023-03-17T06:51:32;7.20;99.90
60473;DHT22;46318;52.716;6.444;2023-03-17T06:54:00;7.20;99.90
60473;DHT22;46318;52.716;6.444;2023-03-17T06:56:26;7.20;99.90
60473;DHT22;46318;52.716;6.444;2023-03-17T06:58:52;7.20;99.90
60473;DHT22;46318;52.716;6.444;2023-03-17T07:01:18;7.20;99.90
60473;DHT22;46318;52.716;6.444;2023-03-17T07:03:44;7.30;99.90
60473;DHT22;46318;52.716;6.444;2023-03-17T07:06:10;7.30;99.90
60473;DHT22;46318;52.716;6.444;2023-03-17T07:08:36;7.30;99.90
60473;DHT22;46318;52.716;6.444;2023-03-17T07:11:03;7.30;99.90
60473;DHT22;46318;52.716;6.444;2023-03-17T07:13:29;7.30;99.90
60473;DHT22;46318;52.716;6.444;2023-03-17T07:16:00;7.30;99.90
60473;DHT22;46318;52.716;6.444;2023-03-17T07:18:30;7.40;99.90
60473;DHT22;46318;52.716;6.444;2023-03-17T07:21:00;7.40;99.90
60473;DHT22;46318;52.716;6.444;2023-03-17T07:23:27;7.40;99.90
60473;DHT22;46318;52.716;6.444;2023-03-17T07:25:56;7.50;99.90
60473;DHT22;46318;52.716;6.444;2023-03-17T07:28:22;7.50;99.90
60473;DHT22;46318;52.716;6.444;2023-03-17T07:30:49;7.50;99.90
60473;DHT22;46318;52.716;6.444;2023-03-17T07:33:16;7.50;99.90
60473;DHT22;46318;52.716;6.444;2023-03-17T07:35:46;7.60;99.90
60473;DHT22;46318;52.716;6.444;2023-03-17T07:38:13;7.60;99.90
60473;DHT22;46318;52.716;6.444;2023-03-17T07:40:42;7.70;99.90
60473;DHT22;46318;52.716;6.444;2023-03-17T07:43:09;7.70;99.90
60473;DHT22;46318;52.716;6.444;2023-03-17T07:45:35;7.80;99.90
60473;DHT22;46318;52.716;6.444;2023-03-17T07:48:02;7.80;99.90
60473;DHT22;46318;52.716;6.444;2023-03-17T07:50:30;7.80;99.90
60473;DHT22;46318;52.716;6.444;2023-03-17T07:52:59;7.90;99.90
60473;DHT22;46318;52.716;6.444;2023-03-17T07:55:26;7.90;99.90
60473;DHT22;46318;52.716;6.444;2023-03-17T07:57:52;8.00;99.90
60473;DHT22;46318;52.716;6.444;2023-03-17T08:00:18;8.00;99.70
60473;DHT22;46318;52.716;6.444;2023-03-17T08:02:46;8.10;99.70
60473;DHT22;46318;52.716;6.444;2023-03-17T08:05:12;8.10;99.70
60473;DHT22;46318;52.716;6.444;2023-03-17T08:07:38;8.20;99.60
60473;DHT22;46318;52.716;6.444;2023-03-17T08:10:05;8.20;99.50
60473;DHT22;46318;52.716;6.444;2023-03-17T08:12:32;8.30;99.30
60473;DHT22;46318;52.716;6.444;2023-03-17T08:14:59;8.30;99.20
60473;DHT22;46318;52.716;6.444;2023-03-17T08:17:25;8.40;99.10
60473;DHT22;46318;52.716;6.444;2023-03-17T08:19:55;8.50;99.00
60473;DHT22;46318;52.716;6.444;2023-03-17T08:22:22;8.50;98.90
60473;DHT22;46318;52.716;6.444;2023-03-17T08:24:48;8.60;98.70
60473;DHT22;46318;52.716;6.444;2023-03-17T08:27:15;8.60;98.50
60473;DHT22;46318;52.716;6.444;2023-03-17T08:29:41;8.70;98.50
60473;DHT22;46318;52.716;6.444;2023-03-17T08:32:07;8.80;98.50
60473;DHT22;46318;52.716;6.444;2023-03-17T08:34:33;8.80;98.40
60473;DHT22;46318;52.716;6.444;2023-03-17T08:37:01;8.80;98.30
60473;DHT22;46318;52.716;6.444;2023-03-17T08:39:27;8.90;98.30
60473;DHT22;46318;52.716;6.444;2023-03-17T08:41:53;8.90;98.30
60473;DHT22;46318;52.716;6.444;2023-03-17T08:44:19;9.00;98.60
60473;DHT22;46318;52.716;6.444;2023-03-17T08:46:46;9.00;98.10
60473;DHT22;46318;52.716;6.444;2023-03-17T08:49:14;9.10;98.00
60473;DHT22;46318;52.716;6.444;2023-03-17T08:51:41;9.20;97.90
60473;DHT22;46318;52.716;6.444;2023-03-17T08:54:08;9.20;98.00
60473;DHT22;46318;52.716;6.444;2023-03-17T08:56:35;9.30;97.40
60473;DHT22;46318;52.716;6.444;2023-03-17T08:59:04;9.40;97.30
60473;DHT22;46318;52.716;6.444;2023-03-17T09:01:31;9.40;97.20
60473;DHT22;46318;52.716;6.444;2023-03-17T09:03:57;9.50;96.90
60473;DHT22;46318;52.716;6.444;2023-03-17T09:06:23;9.60;96.70
60473;DHT22;46318;52.716;6.444;2023-03-17T09:08:50;9.60;96.70
60473;DHT22;46318;52.716;6.444;2023-03-17T09:11:22;9.70;96.60
60473;DHT22;46318;52.716;6.444;2023-03-17T09:13:49;9.90;96.40
60473;DHT22;46318;52.716;6.444;2023-03-17T09:16:16;10.00;96.40
60473;DHT22;46318;52.716;6.444;2023-03-17T09:18:43;10.10;96.20
60473;DHT22;46318;52.716;6.444;2023-03-17T09:21:12;10.30;96.10
60473;DHT22;46318;52.716;6.444;2023-03-17T09:23:39;10.40;95.90
60473;DHT22;46318;52.716;6.444;2023-03-17T09:26:05;10.60;95.60
60473;DHT22;46318;52.716;6.444;2023-03-17T09:28:32;10.70;95.40
60473;DHT22;46318;52.716;6.444;2023-03-17T09:31:03;10.80;95.30
60473;DHT22;46318;52.716;6.444;2023-03-17T09:33:30;11.00;95.10
60473;DHT22;46318;52.716;6.444;2023-03-17T09:35:56;11.10;94.70
60473;DHT22;46318;52.716;6.444;2023-03-17T09:38:26;11.20;94.50
60473;DHT22;46318;52.716;6.444;2023-03-17T09:49:52;11.60;93.40
60473;DHT22;46318;52.716;6.444;2023-03-17T09:52:30;11.70;93.80
60473;DHT22;46318;52.716;6.444;2023-03-17T09:54:57;11.80;93.80
60473;DHT22;46318;52.716;6.444;2023-03-17T09:57:34;11.80;93.50
60473;DHT22;46318;52.716;6.444;2023-03-17T10:02:35;12.10;93.60
60473;DHT22;46318;52.716;6.444;2023-03-17T10:11:12;12.40;92.90
60473;DHT22;46318;52.716;6.444;2023-03-17T10:14:07;12.60;93.00
60473;DHT22;46318;52.716;6.444;2023-03-17T10:16:50;12.70;92.90
60473;DHT22;46318;52.716;6.444;2023-03-17T10:19:41;12.80;92.60
60473;DHT22;46318;52.716;6.444;2023-03-17T10:22:21;13.00;92.30
60473;DHT22;46318;52.716;6.444;2023-03-17T10:25:00;13.10;92.10
60473;DHT22;46318;52.716;6.444;2023-03-17T10:27:30;13.20;91.90
60473;DHT22;46318;52.716;6.444;2023-03-17T10:29:59;13.30;91.90
60473;DHT22;46318;52.716;6.444;2023-03-17T10:32:25;13.40;92.00
60473;DHT22;46318;52.716;6.444;2023-03-17T10:34:52;13.50;91.90
60473;DHT22;46318;52.716;6.444;2023-03-17T10:37:22;13.60;92.00
60473;DHT22;46318;52.716;6.444;2023-03-17T10:39:53;13.60;91.80
60473;DHT22;46318;52.716;6.444;2023-03-17T10:42:23;13.70;91.50
60473;DHT22;46318;52.716;6.444;2023-03-17T10:45:00;13.80;91.30
60473;DHT22;46318;52.716;6.444;2023-03-17T10:47:34;13.80;91.10
60473;DHT22;46318;52.716;6.444;2023-03-17T10:50:25;13.80;91.10
60473;DHT22;46318;52.716;6.444;2023-03-17T10:53:03;13.80;90.90
60473;DHT22;46318;52.716;6.444;2023-03-17T10:55:48;13.80;91.00
60473;DHT22;46318;52.716;6.444;2023-03-17T10:58:36;13.90;90.50
60473;DHT22;46318;52.716;6.444;2023-03-17T11:03:53;14.10;90.80
60473;DHT22;46318;52.716;6.444;2023-03-17T11:06:31;14.10;90.90
60473;DHT22;46318;52.716;6.444;2023-03-17T11:09:07;14.30;90.70
60473;DHT22;46318;52.716;6.444;2023-03-17T11:11:43;14.30;90.70
60473;DHT22;46318;52.716;6.444;2023-03-17T11:14:15;14.40;90.30
60473;DHT22;46318;52.716;6.444;2023-03-17T11:16:52;14.40;90.40
60473;DHT22;46318;52.716;6.444;2023-03-17T11:22:38;14.60;89.40
60473;DHT22;46318;52.716;6.444;2023-03-17T11:25:24;14.70;88.90
60473;DHT22;46318;52.716;6.444;2023-03-17T11:28:21;14.80;89.40
60473;DHT22;46318;52.716;6.444;2023-03-17T11:39:25;15.30;87.70
60473;DHT22;46318;52.716;6.444;2023-03-17T11:45:20;15.40;85.90
60473;DHT22;46318;52.716;6.444;2023-03-17T11:48:09;15.50;86.40
60473;DHT22;46318;52.716;6.444;2023-03-17T11:51:00;15.50;85.90
60473;DHT22;46318;52.716;6.444;2023-03-17T11:54:02;15.60;86.40
60473;DHT22;46318;52.716;6.444;2023-03-17T11:56:37;15.70;86.10
60473;DHT22;46318;52.716;6.444;2023-03-17T11:59:15;15.70;85.60
60473;DHT22;46318;52.716;6.444;2023-03-17T12:04:50;15.80;86.00
60473;DHT22;46318;52.716;6.444;2023-03-17T12:07:25;15.80;85.10
60473;DHT22;46318;52.716;6.444;2023-03-17T12:10:29;15.80;85.20
60473;DHT22;46318;52.716;6.444;2023-03-17T12:15:35;15.80;85.60
60473;DHT22;46318;52.716;6.444;2023-03-17T12:18:24;15.80;85.60
60473;DHT22;46318;52.716;6.444;2023-03-17T12:21:08;15.90;85.60
60473;DHT22;46318;52.716;6.444;2023-03-17T12:29:57;16.00;84.90
60473;DHT22;46318;52.716;6.444;2023-03-17T12:32:55;15.90;84.40
60473;DHT22;46318;52.716;6.444;2023-03-17T12:35:34;16.00;85.60
60473;DHT22;46318;52.716;6.444;2023-03-17T12:38:20;15.90;84.50
60473;DHT22;46318;52.716;6.444;2023-03-17T12:55:01;15.90;86.00
60473;DHT22;46318;52.716;6.444;2023-03-17T12:57:36;15.90;85.00
60473;DHT22;46318;52.716;6.444;2023-03-17T13:00:33;15.90;84.70
60473;DHT22;46318;52.716;6.444;2023-03-17T13:03:27;15.90;84.30
60473;DHT22;46318;52.716;6.444;2023-03-17T13:06:00;15.90;84.30
60473;DHT22;46318;52.716;6.444;2023-03-17T13:08:33;16.00;84.50
60473;DHT22;46318;52.716;6.444;2023-03-17T13:11:26;16.10;83.60
60473;DHT22;46318;52.716;6.444;2023-03-17T13:14:25;16.20;83.40
60473;DHT22;46318;52.716;6.444;2023-03-17T13:41:04;16.70;82.50
60473;DHT22;46318;52.716;6.444;2023-03-17T13:44:03;16.80;80.10
60473;DHT22;46318;52.716;6.444;2023-03-17T13:46:38;16.80;81.30
60473;DHT22;46318;52.716;6.444;2023-03-17T13:52:10;16.80;81.00
60473;DHT22;46318;52.716;6.444;2023-03-17T13:54:46;16.80;81.00
60473;DHT22;46318;52.716;6.444;2023-03-17T14:02:42;16.80;79.80
60473;DHT22;46318;52.716;6.444;2023-03-17T14:05:30;16.80;80.10
60473;DHT22;46318;52.716;6.444;2023-03-17T14:08:01;16.80;79.10
60473;DHT22;46318;52.716;6.444;2023-03-17T14:10:31;16.80;80.20
60473;DHT22;46318;52.716;6.444;2023-03-17T14:16:11;16.80;81.70
60473;DHT22;46318;52.716;6.444;2023-03-17T14:18:47;16.80;81.00
60473;DHT22;46318;52.716;6.444;2023-03-17T14:21:24;16.70;81.40
60473;DHT22;46318;52.716;6.444;2023-03-17T14:23:57;16.70;81.90
60473;DHT22;46318;52.716;6.444;2023-03-17T14:26:27;16.70;82.00
60473;DHT22;46318;52.716;6.444;2023-03-17T14:28:58;16.70;81.70
60473;DHT22;46318;52.716;6.444;2023-03-17T14:31:26;16.70;81.40
60473;DHT22;46318;52.716;6.444;2023-03-17T14:33:55;16.70;82.00
60473;DHT22;46318;52.716;6.444;2023-03-17T14:36:26;16.70;82.20
60473;DHT22;46318;52.716;6.444;2023-03-17T14:38:55;16.70;81.80
60473;DHT22;46318;52.716;6.444;2023-03-17T14:41:23;16.70;81.70
60473;DHT22;46318;52.716;6.444;2023-03-17T14:43:52;16.60;81.70
60473;DHT22;46318;52.716;6.444;2023-03-17T14:49:21;16.70;82.60
60473;DHT22;46318;52.716;6.444;2023-03-17T14:51:49;16.60;82.90
60473;DHT22;46318;52.716;6.444;2023-03-17T14:54:32;16.70;81.80
60473;DHT22;46318;52.716;6.444;2023-03-17T14:57:05;16.70;81.10
60473;DHT22;46318;52.716;6.444;2023-03-17T14:59:36;16.70;81.50
60473;DHT22;46318;52.716;6.444;2023-03-17T15:02:32;16.60;81.80
60473;DHT22;46318;52.716;6.444;2023-03-17T15:07:42;16.60;82.90
60473;DHT22;46318;52.716;6.444;2023-03-17T15:10:16;16.70;82.10
60473;DHT22;46318;52.716;6.444;2023-03-17T15:12:44;16.60;81.40
60473;DHT22;46318;52.716;6.444;2023-03-17T15:15:22;16.60;81.60
60473;DHT22;46318;52.716;6.444;2023-03-17T15:17:55;16.60;81.50
60473;DHT22;46318;52.716;6.444;2023-03-17T15:20:22;16.60;82.60
60473;DHT22;46318;52.716;6.444;2023-03-17T15:22:54;16.60;83.30
60473;DHT22;46318;52.716;6.444;2023-03-17T15:25:42;16.60;82.90
60473;DHT22;46318;52.716;6.444;2023-03-17T15:28:18;16.60;82.40
60473;DHT22;46318;52.716;6.444;2023-03-17T15:30:49;16.60;82.90
60473;DHT22;46318;52.716;6.444;2023-03-17T15:33:20;16.60;82.50
60473;DHT22;46318;52.716;6.444;2023-03-17T15:35:48;16.60;82.60
60473;DHT22;46318;52.716;6.444;2023-03-17T15:38:15;16.60;82.10
60473;DHT22;46318;52.716;6.444;2023-03-17T15:40:41;16.60;82.40
60473;DHT22;46318;52.716;6.444;2023-03-17T15:43:12;16.50;82.80
60473;DHT22;46318;52.716;6.444;2023-03-17T15:45:39;16.60;83.30
60473;DHT22;46318;52.716;6.444;2023-03-17T15:48:14;16.60;84.30
60473;DHT22;46318;52.716;6.444;2023-03-17T15:50:46;16.50;84.40
60473;DHT22;46318;52.716;6.444;2023-03-17T15:53:12;16.50;84.60
60473;DHT22;46318;52.716;6.444;2023-03-17T15:55:38;16.50;84.80
60473;DHT22;46318;52.716;6.444;2023-03-17T15:58:04;16.50;85.00
60473;DHT22;46318;52.716;6.444;2023-03-17T16:00:30;16.50;85.10
60473;DHT22;46318;52.716;6.444;2023-03-17T16:02:59;16.50;85.10
60473;DHT22;46318;52.716;6.444;2023-03-17T16:05:29;16.50;85.60
60473;DHT22;46318;52.716;6.444;2023-03-17T16:07:56;16.40;85.90
60473;DHT22;46318;52.716;6.444;2023-03-17T16:10:28;16.40;86.10
60473;DHT22;46318;52.716;6.444;2023-03-17T16:12:56;16.40;86.80
60473;DHT22;46318;52.716;6.444;2023-03-17T16:15:24;16.40;87.20
60473;DHT22;46318;52.716;6.444;2023-03-17T16:17:53;16.40;87.50
60473;DHT22;46318;52.716;6.444;2023-03-17T16:20:39;16.40;87.80
60473;DHT22;46318;52.716;6.444;2023-03-17T16:23:15;16.40;86.90
60473;DHT22;46318;52.716;6.444;2023-03-17T16:25:43;16.40;86.50
60473;DHT22;46318;52.716;6.444;2023-03-17T16:28:29;16.40;86.70
60473;DHT22;46318;52.716;6.444;2023-03-17T16:30:57;16.30;86.90
60473;DHT22;46318;52.716;6.444;2023-03-17T16:33:29;16.30;86.80
60473;DHT22;46318;52.716;6.444;2023-03-17T16:35:59;16.30;87.10
60473;DHT22;46318;52.716;6.444;2023-03-17T16:38:29;16.30;87.40
60473;DHT22;46318;52.716;6.444;2023-03-17T16:41:00;16.20;87.50
60473;DHT22;46318;52.716;6.444;2023-03-17T16:43:33;16.20;88.00
60473;DHT22;46318;52.716;6.444;2023-03-17T16:46:03;16.20;88.00
60473;DHT22;46318;52.716;6.444;2023-03-17T16:48:30;16.20;88.10
60473;DHT22;46318;52.716;6.444;2023-03-17T16:50:56;16.20;88.60
60473;DHT22;46318;52.716;6.444;2023-03-17T16:53:23;16.20;88.60
60473;DHT22;46318;52.716;6.444;2023-03-17T16:55:50;16.10;88.70
60473;DHT22;46318;52.716;6.444;2023-03-17T16:58:19;16.10;88.70
60473;DHT22;46318;52.716;6.444;2023-03-17T17:00:47;16.00;88.80
60473;DHT22;46318;52.716;6.444;2023-03-17T17:03:14;16.00;88.90
60473;DHT22;46318;52.716;6.444;2023-03-17T17:05:40;16.00;89.10
60473;DHT22;46318;52.716;6.444;2023-03-17T17:08:07;15.90;89.20
60473;DHT22;46318;52.716;6.444;2023-03-17T17:10:34;15.90;89.40
60473;DHT22;46318;52.716;6.444;2023-03-17T17:13:02;15.90;89.50
60473;DHT22;46318;52.716;6.444;2023-03-17T17:15:29;15.80;89.80
60473;DHT22;46318;52.716;6.444;2023-03-17T17:17:59;15.80;90.00
60473;DHT22;46318;52.716;6.444;2023-03-17T17:20:35;15.80;90.20
60473;DHT22;46318;52.716;6.444;2023-03-17T17:23:04;15.70;90.30
60473;DHT22;46318;52.716;6.444;2023-03-17T17:25:31;15.70;90.40
60473;DHT22;46318;52.716;6.444;2023-03-17T17:27:58;15.60;90.50
60473;DHT22;46318;52.716;6.444;2023-03-17T17:30:27;15.60;90.60
60473;DHT22;46318;52.716;6.444;2023-03-17T17:32:55;15.60;90.80
60473;DHT22;46318;52.716;6.444;2023-03-17T17:35:24;15.60;90.90
60473;DHT22;46318;52.716;6.444;2023-03-17T17:37:51;15.60;91.10
60473;DHT22;46318;52.716;6.444;2023-03-17T17:40:20;15.50;91.20
60473;DHT22;46318;52.716;6.444;2023-03-17T17:42:49;15.40;91.20
60473;DHT22;46318;52.716;6.444;2023-03-17T17:45:16;15.40;91.40
60473;DHT22;46318;52.716;6.444;2023-03-17T17:47:42;15.40;91.50